Time;durP1;ratioP1;P1;durP2;ratioP2;P2;SDS_P1;SDS_P2;PMS_P1;PMS_P2;Temp;Humidity;BMP_temperature;BMP_pressure;BME280_temperature;BME280_humidity;BME280_pressure;Samples;Min_cycle;Max_cycle;Signal;HPM_P1;HPM_P2
2022/05/25 00:01:33;;;;;;;;;;;13.00;99.90;;;;;;5073135;28;20280;-74
2022/05/25 00:04:00;;;;;;;;;;;12.90;99.90;;;;;;5072998;28;19955;-77
2022/05/25 00:06:26;;;;;;;;;;;12.90;99.90;;;;;;5073028;28;19908;-75
2022/05/25 00:08:52;;;;;;;;;;;12.80;99.90;;;;;;5072365;28;19940;-76
2022/05/25 00:11:18;;;;;;;;;;;12.70;99.90;;;;;;5072951;28;19908;-75
2022/05/25 00:13:43;;;;;;;;;;;12.60;99.90;;;;;;5072956;28;20391;-76
2022/05/25 00:16:09;;;;;;;;;;;12.50;99.90;;;;;;5055397;28;19999;-76
2022/05/25 00:18:34;;;;;;;;;;;12.40;99.90;;;;;;5058974;28;19954;-74
2022/05/25 00:21:00;;;;;;;;;;;12.60;99.90;;;;;;5076274;28;19914;-77
2022/05/25 00:23:26;;;;;;;;;;;12.60;99.90;;;;;;5076835;28;19915;-76
2022/05/25 00:25:51;;;;;;;;;;;12.50;99.90;;;;;;5076775;28;19909;-76
2022/05/25 00:28:17;;;;;;;;;;;12.40;99.90;;;;;;5058666;28;19919;-75
2022/05/25 00:30:44;;;;;;;;;;;12.40;99.90;;;;;;5057600;28;20364;-75
2022/05/25 00:33:10;;;;;;;;;;;12.40;99.90;;;;;;5076284;28;20015;-76
2022/05/25 00:35:36;;;;;;;;;;;12.20;99.90;;;;;;5076438;28;19915;-75
2022/05/25 00:38:03;;;;;;;;;;;12.00;99.90;;;;;;5076558;28;19999;-74
2022/05/25 00:40:40;;;;;;;;;;;11.90;99.90;;;;;;5076076;28;19999;-74
2022/05/25 00:43:06;;;;;;;;;;;11.70;99.90;;;;;;5076393;28;19936;-76
2022/05/25 00:45:35;;;;;;;;;;;11.80;99.90;;;;;;5092114;28;19912;-75
2022/05/25 00:48:01;;;;;;;;;;;12.00;99.90;;;;;;5076227;28;19916;-76
2022/05/25 00:51:11;;;;;;;;;;;12.00;99.90;;;;;;5075899;28;19908;-74
2022/05/25 00:53:13;;;;;;;;;;;12.00;99.90;;;;;;5075973;28;19908;-76
2022/05/25 00:55:38;;;;;;;;;;;12.10;99.90;;;;;;5076351;28;19959;-74
2022/05/25 00:58:05;;;;;;;;;;;12.10;99.90;;;;;;5076178;28;19908;-74
2022/05/25 01:00:31;;;;;;;;;;;12.20;99.90;;;;;;5075687;28;19909;-76
2022/05/25 01:02:59;;;;;;;;;;;12.00;99.90;;;;;;5076202;28;19916;-76
2022/05/25 01:05:38;;;;;;;;;;;11.90;99.90;;;;;;5076006;28;19908;-75
2022/05/25 01:08:19;;;;;;;;;;;12.00;99.90;;;;;;5057693;28;20303;-74
2022/05/25 01:10:54;;;;;;;;;;;12.10;99.90;;;;;;5075497;28;20364;-78
2022/05/25 01:13:38;;;;;;;;;;;12.10;99.90;;;;;;5075954;28;19912;-76
2022/05/25 01:16:15;;;;;;;;;;;12.00;99.90;;;;;;5075856;28;19978;-74
2022/05/25 01:19:01;;;;;;;;;;;11.90;99.90;;;;;;5076036;28;19912;-75
2022/05/25 01:21:40;;;;;;;;;;;11.80;99.90;;;;;;5044272;28;19909;-75
2022/05/25 01:24:08;;;;;;;;;;;11.60;99.90;;;;;;5075785;28;20280;-75
2022/05/25 01:26:43;;;;;;;;;;;11.60;99.90;;;;;;5057647;28;19991;-75
2022/05/25 01:29:09;;;;;;;;;;;11.60;99.90;;;;;;5055646;28;20368;-74
2022/05/25 01:31:46;;;;;;;;;;;11.10;99.90;;;;;;5075475;28;19908;-76
2022/05/25 01:34:18;;;;;;;;;;;10.90;99.90;;;;;;5057508;28;20368;-74
2022/05/25 01:36:54;;;;;;;;;;;10.70;99.90;;;;;;5075327;28;19921;-75
2022/05/25 01:39:25;;;;;;;;;;;10.70;99.90;;;;;;5056911;28;19920;-77
2022/05/25 01:42:00;;;;;;;;;;;11.00;99.90;;;;;;5075504;28;19912;-74
2022/05/25 01:44:38;;;;;;;;;;;11.30;99.90;;;;;;5075113;28;19908;-76
2022/05/25 01:47:05;;;;;;;;;;;11.50;99.90;;;;;;5075305;28;19913;-76
2022/05/25 01:49:38;;;;;;;;;;;11.50;99.90;;;;;;5074884;28;20440;-74
2022/05/25 01:52:04;;;;;;;;;;;11.50;99.90;;;;;;5057294;28;19939;-74
2022/05/25 01:54:32;;;;;;;;;;;11.70;99.90;;;;;;5075106;28;19912;-74
2022/05/25 01:56:59;;;;;;;;;;;11.70;99.90;;;;;;5074859;28;19908;-76
2022/05/25 01:59:24;;;;;;;;;;;11.70;99.90;;;;;;5074637;28;19912;-77
2022/05/25 02:04:19;;;;;;;;;;;11.60;99.90;;;;;;5057001;28;20292;-77
2022/05/25 02:04:41;;;;;;;;;;;11.40;99.90;;;;;;5074619;28;19918;-74
2022/05/25 02:07:25;;;;;;;;;;;11.30;99.90;;;;;;5056834;28;19913;-74
2022/05/25 02:10:01;;;;;;;;;;;11.20;99.90;;;;;;5074536;28;20031;-75
2022/05/25 02:12:29;;;;;;;;;;;11.30;99.90;;;;;;5074688;28;19915;-74
2022/05/25 02:15:14;;;;;;;;;;;11.10;99.90;;;;;;5074822;28;20003;-75
2022/05/25 02:17:58;;;;;;;;;;;11.10;99.90;;;;;;5074615;28;19908;-75
2022/05/25 02:20:28;;;;;;;;;;;10.90;99.90;;;;;;5063131;28;19909;-75
2022/05/25 02:22:59;;;;;;;;;;;10.40;99.90;;;;;;5054906;28;19908;-75
2022/05/25 02:25:30;;;;;;;;;;;10.40;99.90;;;;;;5053228;28;20281;-74
2022/05/25 02:28:09;;;;;;;;;;;10.50;99.90;;;;;;5054578;28;19935;-76
2022/05/25 02:30:37;;;;;;;;;;;10.40;99.90;;;;;;5035203;28;19924;-76
2022/05/25 02:33:09;;;;;;;;;;;10.30;99.90;;;;;;5054279;28;19959;-76
2022/05/25 02:35:35;;;;;;;;;;;10.60;99.90;;;;;;5054157;28;19915;-77
2022/05/25 02:38:04;;;;;;;;;;;10.80;99.90;;;;;;5054512;28;19909;-76
2022/05/25 02:40:30;;;;;;;;;;;11.00;99.90;;;;;;5052964;28;19979;-76
2022/05/25 02:42:55;;;;;;;;;;;11.10;99.90;;;;;;5054212;28;19909;-76
2022/05/25 02:45:21;;;;;;;;;;;11.10;99.90;;;;;;5053776;28;19908;-74
2022/05/25 02:47:47;;;;;;;;;;;11.00;99.90;;;;;;5053992;28;19956;-75
2022/05/25 02:50:13;;;;;;;;;;;11.00;99.90;;;;;;5053731;28;19915;-74
2022/05/25 02:52:38;;;;;;;;;;;10.90;99.90;;;;;;5053934;28;19999;-76
2022/05/25 02:55:04;;;;;;;;;;;10.90;99.90;;;;;;5052773;28;19916;-76
2022/05/25 02:57:30;;;;;;;;;;;10.90;99.90;;;;;;5053902;28;19913;-75
2022/05/25 02:59:56;;;;;;;;;;;10.60;99.90;;;;;;5049571;28;20015;-76
2022/05/25 03:02:21;;;;;;;;;;;10.50;99.90;;;;;;5053903;28;19916;-75
2022/05/25 03:04:47;;;;;;;;;;;10.50;99.90;;;;;;5053774;28;19935;-74
2022/05/25 03:07:13;;;;;;;;;;;10.70;99.90;;;;;;5035796;28;19913;-74
2022/05/25 03:09:39;;;;;;;;;;;10.80;99.90;;;;;;5053453;28;19996;-76
2022/05/25 03:12:05;;;;;;;;;;;10.80;99.90;;;;;;5053663;28;20000;-75
2022/05/25 03:14:31;;;;;;;;;;;10.80;99.90;;;;;;5053626;28;20048;-75
2022/05/25 03:16:58;;;;;;;;;;;10.80;99.90;;;;;;5053587;28;20438;-77
2022/05/25 03:19:24;;;;;;;;;;;10.70;99.90;;;;;;5053377;28;19909;-75
2022/05/25 03:21:50;;;;;;;;;;;10.80;99.90;;;;;;5053500;28;19917;-73
2022/05/25 03:24:15;;;;;;;;;;;10.70;99.90;;;;;;5053622;28;20319;-76
2022/05/25 03:26:41;;;;;;;;;;;10.20;99.90;;;;;;5053428;28;20426;-74
2022/05/25 03:29:07;;;;;;;;;;;10.10;99.90;;;;;;5053166;28;19909;-76
2022/05/25 03:31:33;;;;;;;;;;;10.10;99.90;;;;;;5034197;28;19975;-77
2022/05/25 03:34:17;;;;;;;;;;;10.00;99.90;;;;;;5053330;28;19912;-76
2022/05/25 03:36:43;;;;;;;;;;;10.10;99.90;;;;;;5053170;28;20462;-75
2022/05/25 03:39:09;;;;;;;;;;;9.80;99.90;;;;;;5053292;28;19912;-75
2022/05/25 03:41:35;;;;;;;;;;;10.00;99.90;;;;;;5052856;28;19909;-75
2022/05/25 03:44:00;;;;;;;;;;;10.00;99.90;;;;;;5053087;28;20270;-74
2022/05/25 03:46:26;;;;;;;;;;;9.90;99.90;;;;;;5053452;28;19936;-75
2022/05/25 03:48:51;;;;;;;;;;;9.80;99.90;;;;;;5051838;28;19912;-75
2022/05/25 03:51:17;;;;;;;;;;;10.00;99.90;;;;;;5054261;28;19909;-76
2022/05/25 03:53:42;;;;;;;;;;;10.00;99.90;;;;;;5059812;28;19916;-75
2022/05/25 03:56:08;;;;;;;;;;;10.10;99.90;;;;;;5059675;28;20000;-76
2022/05/25 03:58:34;;;;;;;;;;;10.20;99.90;;;;;;5059827;28;20365;-74
2022/05/25 04:00:59;;;;;;;;;;;10.40;99.90;;;;;;5061160;28;20003;-77
2022/05/25 04:03:25;;;;;;;;;;;10.50;99.90;;;;;;5079923;28;19908;-76
2022/05/25 04:05:51;;;;;;;;;;;10.40;99.90;;;;;;5079765;28;19915;-75
2022/05/25 04:08:16;;;;;;;;;;;10.30;99.90;;;;;;5079551;28;20372;-75
2022/05/25 04:10:42;;;;;;;;;;;10.30;99.90;;;;;;5069117;28;20373;-74
2022/05/25 04:13:08;;;;;;;;;;;10.40;99.90;;;;;;5059580;28;19951;-76
2022/05/25 04:15:34;;;;;;;;;;;10.40;99.90;;;;;;5058346;28;19916;-76
2022/05/25 04:17:59;;;;;;;;;;;10.60;99.90;;;;;;5059696;28;19909;-75
2022/05/25 04:20:26;;;;;;;;;;;10.50;99.90;;;;;;5059151;28;20377;-76
2022/05/25 04:22:51;;;;;;;;;;;10.60;99.90;;;;;;5059566;28;20339;-77
2022/05/25 04:25:18;;;;;;;;;;;10.70;99.90;;;;;;5058321;28;19909;-75
2022/05/25 04:27:44;;;;;;;;;;;10.70;99.90;;;;;;5059486;28;19912;-74
2022/05/25 04:30:11;;;;;;;;;;;10.80;99.90;;;;;;5059216;28;20458;-76
2022/05/25 04:32:37;;;;;;;;;;;10.80;99.90;;;;;;5040982;28;20372;-75
2022/05/25 04:35:03;;;;;;;;;;;10.90;99.90;;;;;;5059396;28;19908;-76
2022/05/25 04:40:13;;;;;;;;;;;10.90;99.90;;;;;;5059252;28;20439;-75
2022/05/25 04:42:39;;;;;;;;;;;10.90;99.90;;;;;;5058229;28;20000;-76
2022/05/25 04:45:05;;;;;;;;;;;11.00;99.90;;;;;;5059067;28;20001;-76
2022/05/25 04:47:32;;;;;;;;;;;10.90;99.90;;;;;;5059347;28;19974;-76
2022/05/25 04:49:58;;;;;;;;;;;10.90;99.90;;;;;;5059042;28;19962;-75
2022/05/25 04:52:23;;;;;;;;;;;10.90;99.90;;;;;;5059399;28;20007;-77
2022/05/25 04:54:49;;;;;;;;;;;11.00;99.90;;;;;;5059387;28;20361;-76
2022/05/25 04:57:21;;;;;;;;;;;10.90;99.90;;;;;;5058999;28;19909;-76
2022/05/25 04:59:49;;;;;;;;;;;10.90;99.90;;;;;;5059427;28;20288;-77
2022/05/25 05:02:15;;;;;;;;;;;10.50;99.90;;;;;;5059012;28;19908;-76
2022/05/25 05:04:41;;;;;;;;;;;10.40;99.90;;;;;;5055215;28;20042;-75
2022/05/25 05:07:07;;;;;;;;;;;10.60;99.90;;;;;;5055841;28;20292;-77
2022/05/25 05:09:36;;;;;;;;;;;10.80;99.90;;;;;;5055948;28;19909;-77
2022/05/25 05:12:02;;;;;;;;;;;11.00;99.90;;;;;;5055505;28;20000;-75
2022/05/25 05:14:28;;;;;;;;;;;11.10;99.90;;;;;;5055888;28;19909;-75
2022/05/25 05:16:57;;;;;;;;;;;11.20;99.90;;;;;;5055893;28;20266;-75
2022/05/25 05:19:27;;;;;;;;;;;11.30;99.90;;;;;;5054478;28;20384;-75
2022/05/25 05:21:59;;;;;;;;;;;11.10;99.90;;;;;;5055265;28;19909;-77
2022/05/25 05:24:25;;;;;;;;;;;11.20;99.90;;;;;;5055696;28;19998;-76
2022/05/25 05:26:51;;;;;;;;;;;11.50;99.90;;;;;;5055622;28;19909;-75
2022/05/25 05:29:17;;;;;;;;;;;11.60;99.90;;;;;;5055629;28;19909;-77
2022/05/25 05:31:42;;;;;;;;;;;11.70;99.90;;;;;;5052049;28;19966;-75
2022/05/25 05:34:08;;;;;;;;;;;11.80;99.90;;;;;;5075461;28;19916;-77
2022/05/25 05:36:36;;;;;;;;;;;11.70;99.90;;;;;;5075090;28;19925;-76
2022/05/25 05:39:05;;;;;;;;;;;11.70;99.90;;;;;;5075308;28;19915;-75
2022/05/25 05:41:34;;;;;;;;;;;11.90;99.90;;;;;;5056880;28;20471;-76
2022/05/25 05:43:59;;;;;;;;;;;11.80;99.90;;;;;;5075039;28;19909;-75
2022/05/25 05:46:25;;;;;;;;;;;11.70;99.90;;;;;;5075321;28;20386;-75
2022/05/25 05:48:51;;;;;;;;;;;11.80;99.90;;;;;;5075002;28;19962;-75
2022/05/25 05:51:17;;;;;;;;;;;11.90;99.90;;;;;;5074642;28;19912;-75
2022/05/25 05:53:44;;;;;;;;;;;12.00;99.90;;;;;;5075096;28;19908;-75
2022/05/25 05:56:10;;;;;;;;;;;12.20;99.90;;;;;;5074932;28;19909;-75
2022/05/25 05:58:36;;;;;;;;;;;12.40;99.90;;;;;;5074882;28;20004;-77
2022/05/25 06:01:02;;;;;;;;;;;12.50;99.90;;;;;;5074376;28;19948;-78
2022/05/25 06:03:28;;;;;;;;;;;12.60;99.90;;;;;;5074874;28;19909;-75
2022/05/25 06:05:53;;;;;;;;;;;12.70;99.90;;;;;;5074899;28;19915;-76
2022/05/25 06:08:23;;;;;;;;;;;12.70;99.90;;;;;;5074536;28;19916;-76
2022/05/25 06:10:48;;;;;;;;;;;12.80;99.90;;;;;;5074429;28;19931;-76
2022/05/25 06:13:14;;;;;;;;;;;12.80;99.90;;;;;;5074776;28;20368;-75
2022/05/25 06:21:13;;;;;;;;;;;12.60;99.90;;;;;;5074157;28;19967;-74
2022/05/25 06:23:39;;;;;;;;;;;13.00;99.90;;;;;;5074517;28;19971;-77
2022/05/25 06:26:04;;;;;;;;;;;13.40;99.90;;;;;;5074621;28;19908;-76
2022/05/25 06:28:30;;;;;;;;;;;14.00;99.90;;;;;;5074335;28;20370;-76
2022/05/25 06:30:55;;;;;;;;;;;14.60;99.90;;;;;;5074213;28;19914;-74
2022/05/25 06:33:21;;;;;;;;;;;14.80;99.90;;;;;;5055221;28;20373;-76
2022/05/25 06:35:46;;;;;;;;;;;15.00;99.90;;;;;;5074184;28;19923;-76
2022/05/25 06:38:12;;;;;;;;;;;14.90;99.90;;;;;;5074392;28;19911;-78
2022/05/25 06:40:38;;;;;;;;;;;14.90;99.90;;;;;;5073835;28;20378;-75
2022/05/25 06:43:03;;;;;;;;;;;14.90;99.90;;;;;;5056287;28;19915;-75
2022/05/25 06:45:29;;;;;;;;;;;15.00;99.90;;;;;;5074145;28;19991;-76
2022/05/25 06:47:54;;;;;;;;;;;15.00;99.90;;;;;;5074025;28;20001;-75
2022/05/25 06:50:20;;;;;;;;;;;14.90;99.90;;;;;;5055823;28;19919;-77
2022/05/25 06:52:45;;;;;;;;;;;14.80;99.90;;;;;;5073977;28;19954;-76
2022/05/25 06:55:11;;;;;;;;;;;14.90;99.90;;;;;;5073982;28;19915;-76
2022/05/25 06:57:37;;;;;;;;;;;15.00;99.90;;;;;;5074129;28;19909;-74
2022/05/25 07:00:03;;;;;;;;;;;15.30;99.90;;;;;;5074073;28;19909;-76
2022/05/25 07:02:29;;;;;;;;;;;15.40;99.90;;;;;;5071982;28;19909;-76
2022/05/25 07:04:55;;;;;;;;;;;15.70;99.90;;;;;;5073822;28;19919;-76
2022/05/25 07:07:21;;;;;;;;;;;15.80;99.90;;;;;;5073655;28;19912;-76
2022/05/25 07:09:47;;;;;;;;;;;16.10;99.90;;;;;;5073760;28;19978;-75
2022/05/25 07:12:13;;;;;;;;;;;16.30;99.90;;;;;;5073443;28;19996;-76
2022/05/25 07:14:47;;;;;;;;;;;16.50;99.90;;;;;;5055662;28;19908;-76
2022/05/25 07:17:15;;;;;;;;;;;16.60;99.90;;;;;;5073302;28;19908;-77
2022/05/25 07:19:41;;;;;;;;;;;16.90;99.90;;;;;;5073459;28;19916;-74
2022/05/25 07:22:08;;;;;;;;;;;17.10;99.90;;;;;;5073278;28;20326;-76
2022/05/25 07:24:34;;;;;;;;;;;17.10;99.90;;;;;;5073512;28;19962;-77
2022/05/25 07:27:00;;;;;;;;;;;17.10;99.90;;;;;;5072871;28;19909;-74
2022/05/25 07:29:25;;;;;;;;;;;17.10;99.90;;;;;;5073492;28;20003;-75
2022/05/25 07:31:55;;;;;;;;;;;17.30;99.90;;;;;;5053979;28;20269;-74
2022/05/25 07:34:22;;;;;;;;;;;17.40;99.90;;;;;;5073466;28;19954;-76
2022/05/25 07:36:54;;;;;;;;;;;17.50;99.90;;;;;;5055212;28;19921;-77
2022/05/25 07:39:21;;;;;;;;;;;17.10;99.90;;;;;;5073599;28;19908;-76
2022/05/25 07:41:49;;;;;;;;;;;16.60;99.90;;;;;;5072861;28;19951;-77
2022/05/25 07:44:18;;;;;;;;;;;16.70;99.90;;;;;;5073268;28;20392;-76
2022/05/25 07:46:43;;;;;;;;;;;16.70;99.90;;;;;;5073133;28;19909;-75
2022/05/25 07:49:09;;;;;;;;;;;16.80;99.90;;;;;;5073258;28;20280;-76
2022/05/25 07:51:35;;;;;;;;;;;16.80;99.90;;;;;;5072825;28;19995;-74
2022/05/25 07:54:01;;;;;;;;;;;16.90;99.90;;;;;;5055182;28;19916;-76
2022/05/25 07:56:35;;;;;;;;;;;17.20;99.90;;;;;;5073103;28;19999;-75
2022/05/25 07:59:02;;;;;;;;;;;17.20;99.90;;;;;;5073155;28;19913;-76
2022/05/25 08:07:07;;;;;;;;;;;17.50;99.90;;;;;;5073131;28;19920;-77
2022/05/25 08:09:33;;;;;;;;;;;17.50;99.90;;;;;;5073184;28;19908;-75
2022/05/25 08:11:59;;;;;;;;;;;17.80;99.90;;;;;;5072739;28;19909;-75
2022/05/25 08:14:25;;;;;;;;;;;18.20;99.90;;;;;;5073126;28;19997;-75
2022/05/25 08:16:51;;;;;;;;;;;18.10;99.90;;;;;;5072935;28;19977;-76
2022/05/25 08:19:17;;;;;;;;;;;18.30;99.90;;;;;;5073276;28;19908;-75
2022/05/25 08:21:42;;;;;;;;;;;18.40;99.90;;;;;;5072541;28;19908;-77
2022/05/25 08:24:08;;;;;;;;;;;18.60;99.90;;;;;;5072892;28;19909;-75
2022/05/25 08:26:34;;;;;;;;;;;18.80;99.90;;;;;;5072994;28;20014;-76
2022/05/25 08:28:59;;;;;;;;;;;19.00;99.90;;;;;;5072724;28;19916;-76
2022/05/25 08:31:25;;;;;;;;;;;18.20;99.90;;;;;;5072565;28;20379;-75
2022/05/25 08:33:51;;;;;;;;;;;17.80;99.90;;;;;;5053652;28;19920;-76
2022/05/25 08:36:16;;;;;;;;;;;17.80;99.90;;;;;;5054641;28;19951;-75
2022/05/25 08:38:42;;;;;;;;;;;17.70;99.90;;;;;;5056132;28;19909;-77
2022/05/25 08:41:08;;;;;;;;;;;17.80;99.90;;;;;;5055004;28;19913;-75
2022/05/25 08:43:34;;;;;;;;;;;18.20;99.90;;;;;;5056478;28;19916;-77
2022/05/25 08:46:05;;;;;;;;;;;18.50;99.90;;;;;;5056247;28;20000;-75
2022/05/25 08:48:31;;;;;;;;;;;18.70;99.90;;;;;;5056369;28;19916;-75
2022/05/25 08:50:59;;;;;;;;;;;19.00;99.90;;;;;;5056143;28;19959;-76
2022/05/25 08:53:24;;;;;;;;;;;19.30;99.90;;;;;;5055023;28;20343;-76
2022/05/25 08:56:09;;;;;;;;;;;19.60;99.90;;;;;;5056182;28;19938;-76
2022/05/25 08:58:56;;;;;;;;;;;19.90;99.90;;;;;;5056321;28;19908;-74
2022/05/25 09:01:25;;;;;;;;;;;19.80;99.20;;;;;;5055405;28;19909;-77
2022/05/25 09:04:03;;;;;;;;;;;19.50;99.90;;;;;;5056131;28;19913;-75
2022/05/25 09:06:32;;;;;;;;;;;19.10;99.90;;;;;;5056207;28;19909;-75
2022/05/25 09:09:03;;;;;;;;;;;18.90;99.90;;;;;;5055736;28;19913;-77
2022/05/25 09:11:50;;;;;;;;;;;19.00;99.90;;;;;;5055627;28;19916;-75
2022/05/25 09:14:25;;;;;;;;;;;19.00;99.90;;;;;;5055861;28;19909;-74
2022/05/25 09:16:53;;;;;;;;;;;18.90;99.90;;;;;;5055809;28;19936;-76
2022/05/25 09:19:30;;;;;;;;;;;18.80;99.90;;;;;;5055807;28;19959;-76
2022/05/25 09:21:59;;;;;;;;;;;19.30;99.90;;;;;;5055447;28;20412;-77
2022/05/25 09:24:25;;;;;;;;;;;19.70;99.90;;;;;;5055730;28;20348;-74
2022/05/25 09:26:52;;;;;;;;;;;20.10;99.20;;;;;;5055610;28;19920;-76
2022/05/25 09:29:18;;;;;;;;;;;21.00;97.30;;;;;;5055412;28;19909;-75
2022/05/25 09:31:44;;;;;;;;;;;21.80;93.90;;;;;;5055150;28;20274;-74
2022/05/25 09:34:13;;;;;;;;;;;22.00;91.40;;;;;;5036523;28;20059;-76
2022/05/25 09:36:42;;;;;;;;;;;22.00;90.30;;;;;;5055419;28;19923;-77
2022/05/25 09:39:14;;;;;;;;;;;22.70;89.00;;;;;;5054689;28;20147;-77
2022/05/25 09:41:41;;;;;;;;;;;22.70;86.10;;;;;;5055167;28;20358;-77
2022/05/25 09:44:08;;;;;;;;;;;22.70;85.50;;;;;;5055220;28;19970;-74
2022/05/25 09:46:42;;;;;;;;;;;23.10;84.80;;;;;;5055293;28;19909;-78
2022/05/25 09:49:11;;;;;;;;;;;23.50;84.40;;;;;;5054706;28;20368;-76
2022/05/25 09:51:45;;;;;;;;;;;23.30;80.70;;;;;;5054833;28;19959;-77
2022/05/25 09:54:27;;;;;;;;;;;23.00;80.80;;;;;;5055175;28;19920;-76
2022/05/25 09:57:04;;;;;;;;;;;22.30;82.50;;;;;;5054905;28;19909;-77
2022/05/25 09:59:32;;;;;;;;;;;22.00;84.20;;;;;;5053572;28;19909;-75
2022/05/25 10:01:58;;;;;;;;;;;21.30;86.50;;;;;;5054688;28;19909;-77
2022/05/25 10:04:52;;;;;;;;;;;21.40;87.20;;;;;;5054976;28;20296;-76
2022/05/25 10:07:31;;;;;;;;;;;21.40;87.50;;;;;;5054843;28;19913;-76
2022/05/25 10:10:01;;;;;;;;;;;22.40;85.90;;;;;;5054999;28;19916;-76
2022/05/25 10:12:32;;;;;;;;;;;24.30;77.10;;;;;;5054358;28;19916;-77
2022/05/25 10:14:57;;;;;;;;;;;24.20;75.80;;;;;;5054889;28;19955;-75
2022/05/25 10:17:33;;;;;;;;;;;24.20;75.80;;;;;;5054594;28;19909;-77
2022/05/25 10:19:58;;;;;;;;;;;24.20;74.10;;;;;;5054633;28;20292;-76
2022/05/25 10:22:32;;;;;;;;;;;24.90;74.50;;;;;;5054129;28;20000;-77
2022/05/25 10:25:03;;;;;;;;;;;26.30;70.40;;;;;;5054641;28;19908;-77
2022/05/25 10:27:41;;;;;;;;;;;26.30;68.50;;;;;;5054462;28;20019;-76
2022/05/25 10:38:43;;;;;;;;;;;22.50;74.80;;;;;;5054378;28;19920;-75
2022/05/25 10:44:19;;;;;;;;;;;22.40;75.60;;;;;;5053996;28;19916;-75
2022/05/25 10:46:49;;;;;;;;;;;23.00;76.90;;;;;;5050224;28;19909;-75
2022/05/25 10:49:18;;;;;;;;;;;24.00;72.40;;;;;;5054082;28;20332;-76
2022/05/25 10:51:48;;;;;;;;;;;24.40;71.90;;;;;;5053757;28;19909;-75
2022/05/25 10:57:24;;;;;;;;;;;24.70;68.40;;;;;;5054088;28;20380;-75
2022/05/25 10:59:54;;;;;;;;;;;24.40;67.80;;;;;;5014935;28;20361;-76
2022/05/25 11:02:26;;;;;;;;;;;24.00;68.10;;;;;;5052772;28;20381;-78
2022/05/25 11:05:10;;;;;;;;;;;24.20;68.90;;;;;;5053678;28;19908;-75
2022/05/25 11:07:40;;;;;;;;;;;24.20;68.10;;;;;;5053555;28;20395;-75
2022/05/25 11:10:24;;;;;;;;;;;24.50;68.70;;;;;;5053846;28;19940;-76
2022/05/25 11:12:56;;;;;;;;;;;25.00;67.20;;;;;;5053199;28;20297;-75
2022/05/25 11:15:35;;;;;;;;;;;24.70;66.40;;;;;;5054072;28;19966;-76
2022/05/25 11:18:08;;;;;;;;;;;25.20;66.10;;;;;;5053999;28;19946;-77
2022/05/25 11:20:43;;;;;;;;;;;26.10;64.00;;;;;;5053329;28;19916;-76
2022/05/25 11:23:31;;;;;;;;;;;26.20;64.20;;;;;;5053164;28;19915;-75
2022/05/25 11:25:59;;;;;;;;;;;26.00;64.30;;;;;;5053592;28;20000;-78
2022/05/25 11:28:27;;;;;;;;;;;24.90;65.00;;;;;;5053476;28;19971;-77
2022/05/25 11:31:17;;;;;;;;;;;24.50;65.80;;;;;;5053732;28;19909;-75
2022/05/25 11:33:46;;;;;;;;;;;24.20;67.30;;;;;;5034372;28;20284;-78
2022/05/25 11:36:21;;;;;;;;;;;23.60;69.70;;;;;;5053306;28;19927;-74
2022/05/25 11:38:49;;;;;;;;;;;23.10;69.90;;;;;;5053326;28;19908;-75
2022/05/25 11:41:20;;;;;;;;;;;22.40;71.30;;;;;;5053144;28;19959;-77
2022/05/25 11:43:45;;;;;;;;;;;21.50;74.80;;;;;;5053147;28;19908;-75
2022/05/25 11:46:16;;;;;;;;;;;21.70;77.00;;;;;;5053393;28;19913;-75
2022/05/25 11:49:00;;;;;;;;;;;22.00;76.80;;;;;;5053128;28;20361;-75
2022/05/25 11:51:35;;;;;;;;;;;22.20;75.90;;;;;;5053027;28;19932;-75
2022/05/25 11:54:16;;;;;;;;;;;22.30;75.30;;;;;;5053292;28;19956;-76
2022/05/25 11:57:11;;;;;;;;;;;22.70;74.50;;;;;;5051961;28;19916;-75
2022/05/25 11:59:37;;;;;;;;;;;23.40;71.90;;;;;;4982108;28;20306;-76
2022/05/25 12:02:20;;;;;;;;;;;24.40;69.10;;;;;;5048348;28;19908;-76
2022/05/25 12:05:03;;;;;;;;;;;25.20;68.90;;;;;;5053060;28;19916;-76
2022/05/25 12:07:31;;;;;;;;;;;26.30;66.70;;;;;;5053032;28;20387;-76
2022/05/25 12:10:02;;;;;;;;;;;27.00;65.40;;;;;;5052999;28;19915;-77
2022/05/25 12:12:41;;;;;;;;;;;27.60;62.80;;;;;;5035657;28;19909;-77
2022/05/25 12:15:09;;;;;;;;;;;28.10;61.90;;;;;;5057056;28;19908;-77
2022/05/25 12:17:53;;;;;;;;;;;27.50;61.80;;;;;;5056927;28;19970;-76
2022/05/25 12:20:26;;;;;;;;;;;27.70;61.80;;;;;;5056706;28;19913;-77
2022/05/25 12:22:54;;;;;;;;;;;26.60;61.80;;;;;;5056457;28;19915;-78
2022/05/25 12:25:20;;;;;;;;;;;24.90;65.00;;;;;;5056955;28;19909;-77
2022/05/25 12:27:52;;;;;;;;;;;23.80;67.70;;;;;;5055405;28;19913;-76
2022/05/25 12:30:26;;;;;;;;;;;23.10;71.40;;;;;;5056867;28;19909;-76
2022/05/25 12:32:52;;;;;;;;;;;23.00;71.90;;;;;;5056275;28;19909;-76
2022/05/25 12:35:18;;;;;;;;;;;23.30;72.40;;;;;;5036505;28;20388;-74
2022/05/25 12:37:44;;;;;;;;;;;23.70;71.20;;;;;;5056214;28;19921;-76
2022/05/25 12:40:11;;;;;;;;;;;23.70;70.10;;;;;;5056676;28;19940;-76
2022/05/25 12:42:38;;;;;;;;;;;23.50;70.30;;;;;;5048315;28;20043;-76
2022/05/25 12:50:43;;;;;;;;;;;22.20;75.60;;;;;;5056228;28;20351;-76
2022/05/25 12:53:23;;;;;;;;;;;22.00;77.30;;;;;;5055878;28;20310;-76
2022/05/25 12:56:00;;;;;;;;;;;22.20;77.70;;;;;;5054900;28;19909;-77
2022/05/25 12:58:38;;;;;;;;;;;21.90;79.40;;;;;;5056899;28;19909;-75
2022/05/25 13:01:06;;;;;;;;;;;22.20;80.80;;;;;;5056158;28;19915;-76
2022/05/25 13:03:35;;;;;;;;;;;22.40;79.00;;;;;;5055727;28;19909;-75
2022/05/25 13:06:01;;;;;;;;;;;22.40;78.10;;;;;;5056075;28;20373;-74
2022/05/25 13:08:45;;;;;;;;;;;22.00;79.10;;;;;;5055765;28;19917;-76
2022/05/25 13:11:28;;;;;;;;;;;22.50;78.50;;;;;;5055995;28;19913;-75
2022/05/25 13:13:55;;;;;;;;;;;23.60;76.70;;;;;;5055420;28;19909;-75
2022/05/25 13:16:41;;;;;;;;;;;24.30;74.60;;;;;;5055950;28;19916;-75
2022/05/25 13:19:25;;;;;;;;;;;24.90;73.60;;;;;;5037238;28;19959;-76
2022/05/25 13:21:51;;;;;;;;;;;24.70;72.40;;;;;;5055553;28;19913;-74
2022/05/25 13:24:28;;;;;;;;;;;24.60;72.90;;;;;;5054811;28;20277;-77
2022/05/25 13:27:09;;;;;;;;;;;24.60;72.60;;;;;;5055797;28;19916;-77
2022/05/25 13:29:40;;;;;;;;;;;24.90;74.10;;;;;;5055698;28;19912;-76
2022/05/25 13:32:26;;;;;;;;;;;24.70;72.20;;;;;;5055207;28;19909;-75
2022/05/25 13:34:52;;;;;;;;;;;24.10;72.70;;;;;;4995659;28;20003;-76
2022/05/25 13:37:17;;;;;;;;;;;23.20;75.10;;;;;;5055438;28;19970;-77
2022/05/25 13:39:43;;;;;;;;;;;23.20;75.10;;;;;;5055393;28;19909;-75
2022/05/25 13:42:13;;;;;;;;;;;23.20;76.80;;;;;;5055477;28;19916;-76
2022/05/25 13:44:48;;;;;;;;;;;23.10;75.70;;;;;;5053973;28;19909;-76
2022/05/25 13:47:24;;;;;;;;;;;22.70;76.40;;;;;;5055200;28;19982;-75
2022/05/25 13:49:51;;;;;;;;;;;22.10;81.10;;;;;;5055377;28;19931;-75
2022/05/25 13:52:19;;;;;;;;;;;21.90;83.60;;;;;;5054948;28;19908;-76
2022/05/25 13:54:46;;;;;;;;;;;21.90;85.50;;;;;;5053991;28;19988;-77
2022/05/25 13:57:25;;;;;;;;;;;21.80;86.40;;;;;;5054899;28;19916;-76
2022/05/25 13:59:51;;;;;;;;;;;21.60;88.50;;;;;;5055339;28;20006;-76
2022/05/25 14:02:31;;;;;;;;;;;21.10;90.40;;;;;;5052165;28;19971;-75
2022/05/25 14:05:01;;;;;;;;;;;20.80;90.90;;;;;;5055057;28;19916;-76
2022/05/25 14:07:34;;;;;;;;;;;21.00;90.80;;;;;;5055391;28;20257;-76
2022/05/25 14:13:16;;;;;;;;;;;21.40;90.50;;;;;;5054832;28;20392;-74
2022/05/25 14:15:52;;;;;;;;;;;21.80;87.90;;;;;;5054878;28;19908;-75
2022/05/25 14:18:18;;;;;;;;;;;21.80;86.80;;;;;;5054781;28;20318;-74
2022/05/25 14:20:43;;;;;;;;;;;21.70;87.90;;;;;;5054530;28;19908;-76
2022/05/25 14:23:09;;;;;;;;;;;21.90;87.90;;;;;;5045250;28;19909;-77
2022/05/25 14:25:36;;;;;;;;;;;22.30;84.70;;;;;;5053277;28;19909;-74
2022/05/25 14:28:02;;;;;;;;;;;22.90;83.60;;;;;;5054500;28;20365;-77
2022/05/25 14:30:29;;;;;;;;;;;23.20;80.10;;;;;;5054565;28;20008;-76
2022/05/25 14:33:03;;;;;;;;;;;22.90;82.00;;;;;;5053887;28;19916;-77
2022/05/25 14:35:30;;;;;;;;;;;22.70;84.30;;;;;;5035070;28;19916;-77
2022/05/25 14:37:59;;;;;;;;;;;23.10;82.40;;;;;;5054522;28;19989;-75
2022/05/25 14:40:28;;;;;;;;;;;23.50;79.70;;;;;;5054326;28;19909;-78
2022/05/25 14:42:55;;;;;;;;;;;22.90;81.90;;;;;;5054071;28;19999;-75
2022/05/25 14:45:22;;;;;;;;;;;22.20;85.70;;;;;;5053891;28;19920;-75
2022/05/25 14:47:57;;;;;;;;;;;22.10;89.60;;;;;;5054126;28;19920;-76
2022/05/25 14:50:39;;;;;;;;;;;22.10;88.80;;;;;;5054150;28;19931;-77
2022/05/25 14:53:11;;;;;;;;;;;23.00;84.90;;;;;;5046159;28;19944;-77
2022/05/25 14:55:36;;;;;;;;;;;24.70;80.70;;;;;;5053927;28;19991;-76
2022/05/25 14:58:04;;;;;;;;;;;25.50;76.40;;;;;;5053968;28;19959;-78
2022/05/25 15:00:30;;;;;;;;;;;27.10;74.00;;;;;;5053862;28;19909;-77
2022/05/25 15:03:00;;;;;;;;;;;26.10;71.30;;;;;;5053655;28;20381;-75
2022/05/25 15:05:46;;;;;;;;;;;25.30;72.90;;;;;;5053835;28;19944;-75
2022/05/25 15:08:28;;;;;;;;;;;24.60;74.00;;;;;;5053590;28;20308;-75